Time;durP1;ratioP1;P1;durP2;ratioP2;P2;SDS_P1;SDS_P2;PMS_P1;PMS_P2;Temp;Humidity;BMP_temperature;BMP_pressure;BME280_temperature;BME280_humidity;BME280_pressure;Samples;Min_cycle;Max_cycle;Signal;HPM_P1;HPM_P2
2022/08/09 00:01:37;;;;;;;78.60;4.80;;;21.10;1.00;;;;;;5033677;28;20400;-86
2022/08/09 00:04:04;;;;;;;69.00;4.50;;;21.00;1.00;;;;;;5032357;28;20422;-86
2022/08/09 00:06:29;;;;;;;68.13;4.30;;;21.00;1.00;;;;;;5033596;28;20517;-86
2022/08/09 00:08:55;;;;;;;67.40;4.00;;;21.00;1.00;;;;;;5032357;28;20451;-86
2022/08/09 00:11:21;;;;;;;67.87;4.50;;;20.90;1.00;;;;;;5032289;28;20409;-86
2022/08/09 00:13:48;;;;;;;66.57;3.90;;;20.90;1.00;;;;;;5033714;28;20163;-86
2022/08/09 00:16:14;;;;;;;68.23;4.40;;;20.90;1.00;;;;;;5032314;28;20592;-87
2022/08/09 00:18:40;;;;;;;67.50;4.47;;;20.80;1.00;;;;;;5032437;28;20443;-86
2022/08/09 00:21:07;;;;;;;67.73;4.17;;;20.80;1.00;;;;;;5033701;28;20404;-85
2022/08/09 00:23:34;;;;;;;66.83;3.53;;;20.80;1.00;;;;;;5032423;28;20179;-86
2022/08/09 00:25:59;;;;;;;68.97;3.83;;;20.80;1.00;;;;;;5032279;28;20938;-86
2022/08/09 00:28:25;;;;;;;66.20;3.83;;;20.80;1.00;;;;;;5032854;28;20418;-86
2022/08/09 00:30:51;;;;;;;69.13;3.97;;;20.60;1.00;;;;;;5035720;28;20219;-86
2022/08/09 00:33:18;;;;;;;67.47;4.00;;;20.60;1.00;;;;;;5033828;28;20183;-86
2022/08/09 00:35:44;;;;;;;69.20;4.10;;;20.60;1.00;;;;;;5033029;28;20431;-86
2022/08/09 00:38:14;;;;;;;67.07;4.13;;;20.60;1.00;;;;;;5032540;28;20525;-86
2022/08/09 00:40:43;;;;;;;68.90;4.37;;;20.60;1.00;;;;;;5034104;28;20401;-86
2022/08/09 00:43:09;;;;;;;66.30;3.90;;;20.60;1.00;;;;;;5033985;28;20495;-86
2022/08/09 00:45:35;;;;;;;67.33;4.27;;;20.50;2.50;;;;;;5033850;28;20422;-86
2022/08/09 00:48:03;;;;;;;69.07;4.43;;;20.50;2.70;;;;;;5034191;28;20176;-86
2022/08/09 00:50:28;;;;;;;67.50;4.43;;;20.50;3.70;;;;;;5034326;28;20784;-86
2022/08/09 00:52:54;;;;;;;68.10;4.13;;;20.40;4.60;;;;;;5033941;28;20431;-86
2022/08/09 00:55:20;;;;;;;66.37;3.57;;;20.40;5.70;;;;;;5032991;28;20169;-86
2022/08/09 00:57:46;;;;;;;66.97;4.50;;;20.40;5.90;;;;;;5032477;28;20190;-86
2022/08/09 01:00:12;;;;;;;66.77;3.87;;;20.30;7.20;;;;;;5032849;28;20824;-86
2022/08/09 01:02:47;;;;;;;67.27;4.30;;;20.30;8.20;;;;;;5032728;28;20223;-86
2022/08/09 01:05:24;;;;;;;67.07;4.17;;;20.30;8.20;;;;;;5032637;28;20427;-86
2022/08/09 01:08:14;;;;;;;68.47;3.93;;;20.30;9.40;;;;;;5032608;28;20411;-86
2022/08/09 01:10:47;;;;;;;69.40;4.40;;;20.20;10.00;;;;;;5032601;28;20771;-86
2022/08/09 01:13:22;;;;;;;68.20;4.37;;;20.20;9.90;;;;;;5032662;28;20445;-86
2022/08/09 01:15:50;;;;;;;67.70;4.60;;;20.20;11.30;;;;;;5033303;28;20420;-86
2022/08/09 01:18:21;;;;;;;66.70;4.50;;;20.20;12.20;;;;;;5031919;28;20854;-86
2022/08/09 01:21:08;;;;;;;68.70;4.30;;;20.10;12.20;;;;;;5033037;28;20419;-86
2022/08/09 01:24:01;;;;;;;68.07;4.57;;;20.10;12.90;;;;;;5033320;28;20383;-86
2022/08/09 01:26:34;;;;;;;67.07;3.93;;;20.10;13.10;;;;;;5031713;28;20464;-86
2022/08/09 01:29:02;;;;;;;69.10;5.10;;;20.10;12.60;;;;;;5032081;28;20397;-85
2022/08/09 01:31:30;;;;;;;68.43;4.87;;;20.00;13.00;;;;;;5031839;28;20413;-86
2022/08/09 01:33:59;;;;;;;68.07;4.17;;;20.00;13.40;;;;;;5034924;28;20404;-86
2022/08/09 01:36:27;;;;;;;67.07;4.37;;;20.00;14.20;;;;;;5035341;28;20817;-86
2022/08/09 01:38:55;;;;;;;67.17;4.70;;;20.00;14.70;;;;;;5035164;28;20449;-86
2022/08/09 01:41:30;;;;;;;67.77;4.50;;;19.90;14.80;;;;;;5035318;28;20448;-86
2022/08/09 01:43:59;;;;;;;68.77;4.60;;;19.90;15.80;;;;;;5035272;28;20511;-86
2022/08/09 01:46:38;;;;;;;68.40;4.40;;;19.90;16.80;;;;;;5035968;28;20935;-86
2022/08/09 01:49:13;;;;;;;68.50;4.70;;;19.80;17.30;;;;;;5036522;28;20472;-86
2022/08/09 01:51:51;;;;;;;67.90;4.50;;;19.80;17.70;;;;;;5036816;28;21022;-86
2022/08/09 01:54:18;;;;;;;67.20;5.00;;;19.80;18.60;;;;;;5036290;28;20403;-86
2022/08/09 01:56:47;;;;;;;67.97;4.43;;;19.80;18.40;;;;;;5035290;28;20436;-86
2022/08/09 01:59:16;;;;;;;68.70;5.30;;;19.80;18.80;;;;;;5035109;28;20527;-86
2022/08/09 02:01:46;;;;;;;66.97;4.50;;;19.70;19.30;;;;;;5035277;28;20419;-86
2022/08/09 02:04:12;;;;;;;68.50;4.47;;;19.70;19.70;;;;;;5036836;28;20408;-86
2022/08/09 02:09:25;;;;;;;72.80;4.47;;;19.70;19.80;;;;;;5037949;28;20395;-86
2022/08/09 02:11:53;;;;;;;67.37;4.57;;;19.60;21.10;;;;;;5037831;28;20420;-86
2022/08/09 02:14:21;;;;;;;66.80;4.67;;;19.70;21.50;;;;;;5036188;28;20866;-86
2022/08/09 02:16:48;;;;;;;69.00;5.33;;;19.60;22.90;;;;;;5037375;28;20955;-86
2022/08/09 02:19:14;;;;;;;68.20;4.70;;;19.50;23.80;;;;;;5035853;28;20459;-86
2022/08/09 02:21:46;;;;;;;68.00;4.57;;;19.50;24.10;;;;;;5037049;28;20781;-86
2022/08/09 02:24:15;;;;;;;68.60;4.93;;;19.50;24.20;;;;;;5035981;28;20915;-86
2022/08/09 02:26:41;;;;;;;67.73;4.77;;;19.50;24.30;;;;;;5036246;28;20952;-86
2022/08/09 02:29:19;;;;;;;72.30;4.53;;;19.50;25.30;;;;;;5035572;28;20827;-86
2022/08/09 02:31:46;;;;;;;67.40;4.57;;;19.50;25.60;;;;;;5035780;28;20468;-86
2022/08/09 02:34:20;;;;;;;66.50;4.83;;;19.40;26.40;;;;;;5035083;28;20419;-86
2022/08/09 02:36:53;;;;;;;67.20;5.20;;;19.40;27.20;;;;;;5035636;28;20436;-86
2022/08/09 02:39:23;;;;;;;67.30;4.63;;;19.30;28.00;;;;;;5036913;28;20432;-86
2022/08/09 02:42:09;;;;;;;68.80;5.17;;;19.30;29.00;;;;;;5035691;28;20448;-86
2022/08/09 02:44:41;;;;;;;66.97;5.17;;;19.30;29.10;;;;;;5036108;28;20402;-86
2022/08/09 02:47:10;;;;;;;67.27;5.57;;;19.20;30.20;;;;;;5034532;28;20523;-86
2022/08/09 02:49:57;;;;;;;67.47;5.40;;;19.20;30.00;;;;;;5033926;28;20408;-86
2022/08/09 02:52:28;;;;;;;68.77;6.70;;;19.20;30.20;;;;;;5035158;28;20919;-86
2022/08/09 02:54:56;;;;;;;67.50;6.03;;;19.10;32.50;;;;;;5035169;28;20442;-86
2022/08/09 02:57:23;;;;;;;67.37;6.20;;;19.10;32.50;;;;;;5034259;28;20815;-86
2022/08/09 02:59:50;;;;;;;69.70;8.30;;;19.00;34.00;;;;;;5034276;28;20414;-86
2022/08/09 03:02:19;;;;;;;67.50;7.00;;;19.10;35.20;;;;;;5034531;28;20552;-86
2022/08/09 03:04:46;;;;;;;71.10;9.03;;;19.10;35.10;;;;;;5033880;28;20554;-86
2022/08/09 03:07:13;;;;;;;71.10;7.80;;;19.00;34.90;;;;;;5033861;28;20436;-86
2022/08/09 03:09:41;;;;;;;73.67;8.90;;;18.90;37.00;;;;;;5033592;28;20419;-86
2022/08/09 03:12:08;;;;;;;70.57;9.60;;;18.90;36.80;;;;;;5034996;28;20413;-86
2022/08/09 03:14:35;;;;;;;71.27;8.03;;;18.90;38.10;;;;;;5034977;28;20411;-86
2022/08/09 03:17:01;;;;;;;69.03;8.53;;;18.90;37.20;;;;;;5035047;28;20799;-86
2022/08/09 03:21:57;;;;;;;68.97;9.37;;;18.80;39.50;;;;;;5055538;28;20510;-85
2022/08/09 03:24:23;;;;;;;69.20;9.20;;;18.80;39.10;;;;;;5068369;22;20486;-87
2022/08/09 03:26:50;;;;;;;69.10;9.77;;;18.80;39.40;;;;;;5054797;28;20423;-87
2022/08/09 03:29:17;;;;;;;71.00;9.20;;;18.80;39.40;;;;;;5055154;28;20391;-87
2022/08/09 03:31:44;;;;;;;72.07;10.47;;;18.80;39.10;;;;;;5053731;28;20482;-87
2022/08/09 03:34:11;;;;;;;69.67;11.27;;;18.70;41.00;;;;;;5054542;28;20406;-87
2022/08/09 03:36:36;;;;;;;70.53;11.80;;;18.60;42.40;;;;;;5054497;28;20413;-87
2022/08/09 03:39:03;;;;;;;69.90;11.00;;;18.60;43.60;;;;;;5054540;28;20450;-87
2022/08/09 03:41:29;;;;;;;69.37;10.63;;;18.60;43.30;;;;;;5054687;28;20633;-87
2022/08/09 03:43:55;;;;;;;69.03;10.40;;;18.60;43.10;;;;;;5054407;28;20404;-87
2022/08/09 03:46:21;;;;;;;68.70;8.60;;;18.60;42.20;;;;;;5052717;28;20439;-87
2022/08/09 03:48:52;;;;;;;71.00;11.83;;;18.60;42.70;;;;;;5054329;28;20164;-87
2022/08/09 03:51:20;;;;;;;71.47;11.40;;;18.60;42.70;;;;;;5054408;28;20519;-87
2022/08/09 03:53:46;;;;;;;75.43;11.17;;;18.50;43.30;;;;;;5054294;28;20407;-87
2022/08/09 03:56:12;;;;;;;68.93;10.47;;;18.50;44.80;;;;;;5053621;28;20473;-87
2022/08/09 03:58:38;;;;;;;69.30;10.70;;;18.40;46.30;;;;;;5054398;28;20821;-87
2022/08/09 04:01:05;;;;;;;80.73;10.90;;;18.50;46.30;;;;;;5054417;28;20407;-87
2022/08/09 04:03:31;;;;;;;71.87;11.30;;;18.40;48.30;;;;;;5054411;28;20244;-87
2022/08/09 04:05:57;;;;;;;71.67;11.13;;;18.40;49.30;;;;;;5054062;28;20417;-87
2022/08/09 04:08:23;;;;;;;68.50;10.10;;;18.40;48.70;;;;;;5054032;28;20408;-87
2022/08/09 04:10:49;;;;;;;68.40;9.53;;;18.40;48.70;;;;;;5053745;28;20545;-87
2022/08/09 04:13:15;;;;;;;69.00;11.00;;;18.40;48.60;;;;;;5054411;28;20659;-87
2022/08/09 04:15:43;;;;;;;69.50;10.13;;;18.40;51.10;;;;;;5054398;28;20656;-87
2022/08/09 04:18:09;;;;;;;68.57;10.83;;;18.40;50.50;;;;;;5054359;28;20585;-87
2022/08/09 04:20:35;;;;;;;70.20;9.10;;;18.40;49.80;;;;;;5054507;28;20399;-87
2022/08/09 04:23:01;;;;;;;67.87;10.33;;;18.30;51.40;;;;;;5054076;28;20425;-87
2022/08/09 04:25:27;;;;;;;68.27;10.10;;;18.30;50.60;;;;;;5052959;28;20165;-88
2022/08/09 04:27:52;;;;;;;68.77;9.93;;;18.30;52.10;;;;;;5054386;28;20172;-87
2022/08/09 04:30:22;;;;;;;70.67;10.60;;;18.30;51.50;;;;;;5053918;28;20631;-87
2022/08/09 04:32:48;;;;;;;69.47;9.80;;;18.30;52.10;;;;;;5053164;28;20178;-87
2022/08/09 04:35:14;;;;;;;68.60;10.30;;;18.30;53.10;;;;;;5054163;28;20762;-87
2022/08/09 04:37:40;;;;;;;69.30;10.37;;;18.30;54.30;;;;;;5054068;28;20828;-87
2022/08/09 04:40:07;;;;;;;68.07;9.37;;;18.30;53.00;;;;;;5054113;28;20407;-87
2022/08/09 04:42:33;;;;;;;70.37;10.87;;;18.30;53.60;;;;;;5053647;28;20169;-87
2022/08/09 04:45:00;;;;;;;71.50;9.47;;;18.30;54.70;;;;;;5053558;28;20412;-87
2022/08/09 04:47:27;;;;;;;69.47;12.03;;;18.20;56.30;;;;;;5053667;28;20498;-87
2022/08/09 04:49:54;;;;;;;69.03;9.53;;;18.20;56.00;;;;;;5053912;28;20404;-87
2022/08/09 04:52:25;;;;;;;67.57;9.53;;;18.20;57.10;;;;;;5052477;28;20465;-87
2022/08/09 04:54:51;;;;;;;67.87;9.03;;;18.30;57.40;;;;;;5053872;28;20423;-87
2022/08/09 04:57:18;;;;;;;67.97;9.20;;;18.20;58.70;;;;;;5053641;28;20419;-87
2022/08/09 04:59:44;;;;;;;69.20;9.50;;;18.30;59.90;;;;;;5054074;28;20514;-87
2022/08/09 05:02:10;;;;;;;67.53;9.53;;;18.40;58.50;;;;;;5052310;28;20439;-87
2022/08/09 05:04:36;;;;;;;72.27;10.43;;;18.40;58.80;;;;;;5053396;28;20396;-87
2022/08/09 05:07:01;;;;;;;68.13;9.00;;;18.40;60.60;;;;;;5053768;28;20419;-87
2022/08/09 05:09:30;;;;;;;69.47;9.17;;;18.40;61.10;;;;;;5057122;28;20161;-87
2022/08/09 05:11:57;;;;;;;71.80;8.43;;;18.50;63.10;;;;;;5058015;28;20181;-87
2022/08/09 05:14:23;;;;;;;67.70;7.67;;;18.50;64.40;;;;;;5057169;28;20819;-87
2022/08/09 05:16:48;;;;;;;67.20;8.10;;;18.50;61.80;;;;;;5056955;28;20430;-87
2022/08/09 05:19:20;;;;;;;71.83;8.77;;;18.50;63.40;;;;;;5056996;28;20435;-87
2022/08/09 05:21:47;;;;;;;68.63;8.00;;;18.50;64.50;;;;;;5055676;28;20254;-87
2022/08/09 05:24:13;;;;;;;70.17;7.80;;;18.60;65.40;;;;;;5057025;28;20422;-87
2022/08/09 05:26:39;;;;;;;68.47;8.03;;;18.60;66.90;;;;;;5057209;28;20472;-87
2022/08/09 05:29:05;;;;;;;67.17;9.00;;;18.60;67.50;;;;;;5057625;28;20467;-87
2022/08/09 05:31:30;;;;;;;68.17;7.83;;;18.60;66.50;;;;;;5057491;28;20165;-88
2022/08/09 05:33:56;;;;;;;68.43;7.83;;;18.60;69.00;;;;;;5055895;28;20165;-87
2022/08/09 05:36:22;;;;;;;67.47;9.43;;;18.60;71.10;;;;;;5055784;28;20203;-87
2022/08/09 05:38:47;;;;;;;67.00;8.43;;;18.70;75.30;;;;;;5057190;28;20671;-87
2022/08/09 05:41:13;;;;;;;69.50;8.47;;;18.70;71.50;;;;;;5057578;28;20162;-87
2022/08/09 05:43:39;;;;;;;76.50;10.23;;;18.70;75.40;;;;;;5059324;28;20163;-87
2022/08/09 05:46:05;;;;;;;66.77;7.73;;;18.70;72.40;;;;;;5058359;28;20177;-87
2022/08/09 05:48:30;;;;;;;67.97;8.87;;;18.80;74.70;;;;;;5057633;28;20168;-87
2022/08/09 05:50:56;;;;;;;69.10;9.80;;;18.70;83.20;;;;;;5057964;28;20163;-87
2022/08/09 05:53:22;;;;;;;68.73;7.60;;;18.70;84.20;;;;;;5056472;28;20168;-87
2022/08/09 05:55:48;;;;;;;68.07;8.50;;;18.70;83.30;;;;;;5056038;28;21056;-87
2022/08/09 05:58:13;;;;;;;85.53;8.67;;;18.80;80.20;;;;;;5057507;28;20662;-87
2022/08/09 06:00:39;;;;;;;66.23;7.10;;;18.80;82.70;;;;;;5057795;28;20161;-87
2022/08/09 06:03:04;;;;;;;67.40;8.67;;;18.90;80.10;;;;;;5058094;28;20181;-87
2022/08/09 06:05:32;;;;;;;67.23;8.07;;;18.90;82.60;;;;;;5056559;28;20173;-87
2022/08/09 06:07:59;;;;;;;69.17;9.60;;;19.00;80.90;;;;;;5057998;28;20171;-87
2022/08/09 06:10:46;;;;;;;67.13;7.70;;;19.00;80.90;;;;;;5058018;28;20432;-87
2022/08/09 06:13:12;;;;;;;71.30;10.90;;;19.00;80.60;;;;;;5057867;28;20752;-87
2022/08/09 06:15:38;;;;;;;67.50;8.53;;;19.10;79.80;;;;;;5058087;28;20407;-87
2022/08/09 06:18:04;;;;;;;70.97;9.33;;;19.10;79.00;;;;;;5057433;28;20475;-87
2022/08/09 06:20:31;;;;;;;68.90;8.87;;;19.10;85.60;;;;;;5055696;28;20464;-87
2022/08/09 06:22:57;;;;;;;67.87;8.70;;;19.10;85.80;;;;;;5056028;28;20436;-87
2022/08/09 06:25:24;;;;;;;69.87;10.90;;;19.10;83.20;;;;;;5056232;28;20396;-87
2022/08/09 06:27:50;;;;;;;69.67;11.03;;;19.00;88.80;;;;;;5056057;28;20407;-87
2022/08/09 06:30:16;;;;;;;70.23;9.50;;;19.10;81.40;;;;;;5055839;28;20409;-87
2022/08/09 06:32:43;;;;;;;70.90;8.50;;;19.10;82.90;;;;;;5054563;28;20169;-87
2022/08/09 06:35:09;;;;;;;70.23;9.87;;;19.20;84.10;;;;;;5055957;28;20403;-87
2022/08/09 06:37:36;;;;;;;68.50;9.07;;;19.10;80.40;;;;;;5055861;28;20463;-87
2022/08/09 06:40:01;;;;;;;69.73;8.37;;;19.10;78.20;;;;;;5055515;28;20414;-87
2022/08/09 06:42:27;;;;;;;69.77;8.20;;;19.10;79.80;;;;;;5055810;28;20902;-87
2022/08/09 06:44:54;;;;;;;67.87;8.07;;;19.20;79.40;;;;;;5055466;28;20482;-87
2022/08/09 06:47:19;;;;;;;67.27;7.67;;;19.30;72.70;;;;;;5054419;28;20191;-87
2022/08/09 06:49:45;;;;;;;67.70;7.20;;;19.40;69.90;;;;;;5054077;28;20416;-87
2022/08/09 06:52:11;;;;;;;69.20;6.90;;;19.40;70.50;;;;;;5054406;28;20168;-87
2022/08/09 06:54:37;;;;;;;67.97;6.90;;;19.50;70.30;;;;;;5055365;28;20899;-87
2022/08/09 06:57:02;;;;;;;72.30;6.63;;;19.50;69.40;;;;;;5055562;28;20192;-85
2022/08/09 06:59:28;;;;;;;67.83;6.67;;;19.50;67.40;;;;;;5056277;28;20196;-85
2022/08/09 07:01:54;;;;;;;68.00;7.57;;;19.50;66.10;;;;;;5054587;28;20532;-85
2022/08/09 07:04:19;;;;;;;65.43;6.23;;;19.60;65.40;;;;;;5056118;28;20594;-85
2022/08/09 07:06:45;;;;;;;67.77;6.50;;;19.60;64.90;;;;;;5056574;28;20182;-85
2022/08/09 07:09:11;;;;;;;67.67;6.50;;;19.60;59.90;;;;;;5055719;28;20169;-85
2022/08/09 07:11:37;;;;;;;67.20;6.20;;;19.70;64.40;;;;;;5056849;28;20175;-85
2022/08/09 07:14:03;;;;;;;71.33;6.23;;;19.70;62.50;;;;;;5055232;28;20180;-84
2022/08/09 07:16:28;;;;;;;70.30;7.17;;;19.70;64.00;;;;;;5055286;28;20761;-85
2022/08/09 07:18:54;;;;;;;67.87;6.07;;;19.80;64.30;;;;;;5055029;28;20189;-85
2022/08/09 07:21:20;;;;;;;66.80;6.40;;;19.90;63.10;;;;;;5055298;28;20642;-84
2022/08/09 07:23:46;;;;;;;69.50;6.60;;;19.90;59.70;;;;;;5055171;28;20180;-85
2022/08/09 07:26:12;;;;;;;67.90;6.30;;;19.90;60.80;;;;;;5053758;28;20188;-85
2022/08/09 07:28:37;;;;;;;66.90;5.47;;;20.00;60.40;;;;;;5055652;28;20908;-85
2022/08/09 07:31:03;;;;;;;67.30;5.70;;;20.10;59.20;;;;;;5055168;28;20407;-85
2022/08/09 07:33:30;;;;;;;67.87;6.17;;;20.10;57.20;;;;;;5053850;28;20202;-85
2022/08/09 07:35:56;;;;;;;66.80;5.07;;;20.20;55.60;;;;;;5055383;28;20434;-85
2022/08/09 07:38:22;;;;;;;68.60;5.70;;;20.30;52.70;;;;;;5055150;28;20509;-84
2022/08/09 07:40:47;;;;;;;65.90;5.03;;;20.30;49.00;;;;;;5054838;28;20260;-85
2022/08/09 07:43:13;;;;;;;66.77;5.67;;;20.30;50.90;;;;;;5054570;28;20673;-85
2022/08/09 07:45:39;;;;;;;70.40;5.50;;;20.30;48.40;;;;;;5053604;28;20193;-85
2022/08/09 07:48:05;;;;;;;66.93;5.70;;;20.40;45.10;;;;;;5054758;28;20248;-85
2022/08/09 07:50:31;;;;;;;73.50;6.10;;;20.50;42.90;;;;;;5054812;28;20403;-85
2022/08/09 07:52:57;;;;;;;66.97;5.80;;;20.50;40.40;;;;;;5055593;28;20417;-84
2022/08/09 07:55:23;;;;;;;68.03;6.63;;;20.50;39.20;;;;;;5054794;28;20497;-85
2022/08/09 07:57:49;;;;;;;70.60;5.30;;;20.60;39.70;;;;;;5054632;28;20219;-85
2022/08/09 08:00:18;;;;;;;68.30;5.40;;;20.60;40.00;;;;;;5054701;28;20197;-85
2022/08/09 08:02:44;;;;;;;70.63;7.00;;;20.70;38.40;;;;;;5052954;28;20403;-84
2022/08/09 08:05:10;;;;;;;73.30;6.57;;;20.80;33.50;;;;;;5054373;28;20392;-84
2022/08/09 08:07:35;;;;;;;72.77;6.80;;;20.80;31.70;;;;;;5054413;28;20560;-84
2022/08/09 08:10:04;;;;;;;68.60;6.00;;;20.90;32.90;;;;;;5054073;28;20434;-84
2022/08/09 08:12:30;;;;;;;70.27;6.60;;;20.90;32.20;;;;;;5054482;28;20244;-85
2022/08/09 08:14:56;;;;;;;67.97;7.33;;;21.00;32.60;;;;;;5053925;28;20435;-85
2022/08/09 08:17:23;;;;;;;67.33;7.43;;;21.00;29.50;;;;;;5054660;28;20923;-85
2022/08/09 08:19:48;;;;;;;73.80;7.97;;;21.10;29.10;;;;;;5053797;28;20459;-85
2022/08/09 08:22:14;;;;;;;69.87;8.57;;;21.20;25.30;;;;;;5052526;28;20914;-85
2022/08/09 08:24:40;;;;;;;70.57;9.10;;;21.20;24.60;;;;;;5053896;28;20169;-85
2022/08/09 08:27:06;;;;;;;69.90;8.90;;;21.30;25.30;;;;;;5054078;28;20670;-85
2022/08/09 08:29:31;;;;;;;68.80;8.03;;;21.40;23.50;;;;;;5054423;28;20156;-85
2022/08/09 08:31:57;;;;;;;66.83;6.73;;;21.40;20.50;;;;;;5054917;28;20204;-85
2022/08/09 08:34:22;;;;;;;70.87;7.37;;;21.40;18.40;;;;;;5054723;28;20169;-85
2022/08/09 08:36:48;;;;;;;69.50;5.10;;;21.40;15.90;;;;;;5054735;28;20299;-85
2022/08/09 08:39:14;;;;;;;69.40;6.60;;;21.40;15.30;;;;;;5054200;28;20204;-85
2022/08/09 08:41:40;;;;;;;73.00;5.63;;;21.50;15.20;;;;;;5053627;28;20171;-85
2022/08/09 08:44:07;;;;;;;70.47;4.97;;;21.60;13.60;;;;;;5058553;28;20516;-85
2022/08/09 08:46:41;;;;;;;68.70;4.73;;;21.60;8.40;;;;;;5058037;28;20499;-85
2022/08/09 08:49:11;;;;;;;69.77;4.60;;;21.80;11.00;;;;;;5040064;28;20430;-85
2022/08/09 08:51:38;;;;;;;67.50;4.87;;;22.00;9.00;;;;;;5057486;28;20415;-84
2022/08/09 08:54:07;;;;;;;68.27;4.60;;;21.90;1.30;;;;;;5057478;28;20894;-85
2022/08/09 08:56:38;;;;;;;67.23;4.50;;;21.90;1.00;;;;;;5058170;28;20431;-85
2022/08/09 08:59:11;;;;;;;67.80;3.93;;;22.00;1.00;;;;;;5059757;28;20516;-84
2022/08/09 09:01:40;;;;;;;68.83;4.33;;;22.10;1.00;;;;;;5058720;28;20411;-84
2022/08/09 09:04:09;;;;;;;69.17;4.23;;;22.10;1.00;;;;;;5058543;28;20406;-84
2022/08/09 09:06:37;;;;;;;72.27;4.63;;;22.20;1.00;;;;;;5057253;28;20568;-84
2022/08/09 09:09:04;;;;;;;69.00;4.83;;;22.20;1.00;;;;;;5058432;28;20511;-84
2022/08/09 09:11:32;;;;;;;69.70;3.93;;;22.20;1.00;;;;;;5059442;28;20418;-84
2022/08/09 09:14:00;;;;;;;67.77;4.33;;;22.30;1.00;;;;;;5058540;28;20388;-85
2022/08/09 09:16:35;;;;;;;68.27;4.40;;;22.40;1.00;;;;;;5058964;28;20493;-85
2022/08/09 09:19:12;;;;;;;74.17;3.83;;;22.60;1.00;;;;;;5055394;28;20450;-84
2022/08/09 09:22:01;;;;;;;67.20;4.10;;;22.70;1.00;;;;;;5059145;28;20376;-85
2022/08/09 09:24:43;;;;;;;66.73;3.90;;;22.80;1.00;;;;;;5122019;22;20491;-86
2022/08/09 09:27:15;;;;;;;71.63;3.80;;;22.90;1.00;;;;;;5058453;28;20790;-86
2022/08/09 09:29:43;;;;;;;66.87;3.90;;;23.00;1.00;;;;;;5059456;28;20746;-86
2022/08/09 09:32:10;;;;;;;69.63;4.17;;;23.10;1.00;;;;;;5061046;28;20414;-87
2022/08/09 09:34:38;;;;;;;68.07;4.17;;;23.20;1.00;;;;;;5058845;28;20403;-86
2022/08/09 09:37:05;;;;;;;67.87;4.10;;;23.20;1.00;;;;;;5060746;28;20481;-87
2022/08/09 09:39:32;;;;;;;67.50;3.80;;;23.40;1.00;;;;;;5061678;28;20546;-87
2022/08/09 09:42:06;;;;;;;70.03;4.53;;;23.40;1.00;;;;;;5061799;28;20456;-88
2022/08/09 09:44:33;;;;;;;71.20;3.87;;;23.50;1.00;;;;;;5067106;28;20409;-89
2022/08/09 09:47:15;;;;;;;70.53;4.43;;;23.70;1.00;;;;;;5063822;28;20545;-88
2022/08/09 09:49:49;;;;;;;67.47;3.90;;;23.80;1.00;;;;;;5065002;28;20402;-88
2022/08/09 09:52:15;;;;;;;69.50;5.17;;;23.90;1.00;;;;;;5063282;28;20411;-88
2022/08/09 09:54:45;;;;;;;67.70;4.00;;;24.00;1.00;;;;;;5064293;28;20464;-88
2022/08/09 09:57:22;;;;;;;71.20;3.93;;;24.20;1.00;;;;;;5063769;28;20506;-88
2022/08/09 09:59:50;;;;;;;69.57;3.97;;;24.40;1.00;;;;;;5060361;28;20983;-87
2022/08/09 10:02:17;;;;;;;68.50;4.80;;;24.40;1.00;;;;;;5060797;28;20412;-87
2022/08/09 10:04:45;;;;;;;68.50;3.80;;;24.50;1.00;;;;;;5060104;28;20400;-87
2022/08/09 10:07:25;;;;;;;66.07;4.13;;;24.70;1.00;;;;;;5059992;28;20419;-86
2022/08/09 10:09:56;;;;;;;67.30;4.60;;;24.90;1.00;;;;;;5057243;28;20400;-86
2022/08/09 10:12:34;;;;;;;70.80;5.80;;;25.10;1.00;;;;;;5059361;28;20391;-86
2022/08/09 10:15:14;;;;;;;68.90;5.20;;;25.20;1.00;;;;;;5057803;28;20387;-86
2022/08/09 10:17:41;;;;;;;71.47;4.57;;;25.40;1.00;;;;;;5056723;28;20426;-86
2022/08/09 10:20:28;;;;;;;68.50;4.10;;;25.50;1.00;;;;;;5059171;28;20411;-87
2022/08/09 10:22:58;;;;;;;67.77;3.77;;;25.60;1.00;;;;;;5058453;28;20423;-87
2022/08/09 10:25:24;;;;;;;71.07;3.77;;;25.80;1.00;;;;;;5057954;28;20794;-87
2022/08/09 10:27:49;;;;;;;66.40;3.60;;;25.90;1.00;;;;;;5057484;28;20403;-86
2022/08/09 10:35:26;;;;;;;67.67;3.60;;;26.20;1.00;;;;;;5102702;22;20488;-87
2022/08/09 10:37:52;;;;;;;67.37;3.70;;;26.50;1.00;;;;;;5084462;28;20370;-86
2022/08/09 10:40:19;;;;;;;67.10;3.90;;;26.70;1.00;;;;;;5084309;28;20459;-87
2022/08/09 10:42:45;;;;;;;69.10;3.83;;;26.70;1.00;;;;;;5066319;28;20419;-87
2022/08/09 10:45:11;;;;;;;75.10;3.80;;;26.90;1.00;;;;;;5084820;28;20757;-86
2022/08/09 10:47:47;;;;;;;66.27;3.23;;;27.00;1.00;;;;;;5082801;28;20176;-87
2022/08/09 10:50:15;;;;;;;67.33;3.50;;;27.20;1.00;;;;;;5068151;28;20417;-88
2022/08/09 10:52:50;;;;;;;70.50;3.60;;;27.40;1.00;;;;;;5086440;28;20398;-87
2022/08/09 10:55:24;;;;;;;67.70;3.60;;;27.70;1.00;;;;;;5065543;28;20410;-86
2022/08/09 10:57:50;;;;;;;68.47;3.90;;;27.80;1.00;;;;;;5084631;28;20398;-86
2022/08/09 11:00:32;;;;;;;67.20;3.63;;;27.90;1.00;;;;;;5067707;28;20436;-86
2022/08/09 11:02:59;;;;;;;67.13;4.43;;;28.10;1.00;;;;;;5085405;28;20409;-86
2022/08/09 11:05:27;;;;;;;68.30;3.73;;;28.30;1.00;;;;;;5063924;28;20411;-86
2022/08/09 11:07:53;;;;;;;67.17;3.60;;;28.20;1.00;;;;;;5066460;28;20470;-87
2022/08/09 11:10:40;;;;;;;68.40;4.23;;;28.40;1.00;;;;;;5082986;28;20472;-87
2022/08/09 11:13:16;;;;;;;67.77;4.50;;;28.40;1.00;;;;;;5084422;28;20217;-86
2022/08/09 11:15:43;;;;;;;68.67;4.30;;;28.50;1.00;;;;;;5087321;28;20410;-86
2022/08/09 11:18:11;;;;;;;70.23;4.40;;;28.70;1.00;;;;;;5063836;28;20480;-87
2022/08/09 11:20:46;;;;;;;67.07;4.00;;;28.70;1.00;;;;;;5063425;28;20461;-87
2022/08/09 11:23:13;;;;;;;66.63;3.93;;;28.60;1.00;;;;;;5063792;28;20398;-87
2022/08/09 11:25:44;;;;;;;67.33;3.67;;;28.40;1.00;;;;;;5083416;28;20394;-86
2022/08/09 11:28:32;;;;;;;67.80;4.07;;;28.40;1.00;;;;;;5065701;28;20929;-87
2022/08/09 11:30:58;;;;;;;69.83;4.20;;;28.40;1.00;;;;;;5083821;28;20793;-87
2022/08/09 11:33:41;;;;;;;68.63;3.43;;;28.60;1.00;;;;;;5064701;28;20429;-86
2022/08/09 11:36:08;;;;;;;67.70;3.50;;;28.70;1.00;;;;;;5064987;28;20440;-87
2022/08/09 11:38:34;;;;;;;66.10;3.20;;;28.60;1.00;;;;;;5083058;28;20448;-87
2022/08/09 11:41:10;;;;;;;66.87;3.50;;;28.60;1.00;;;;;;5081892;28;20485;-87
2022/08/09 11:43:41;;;;;;;67.60;3.97;;;28.50;1.00;;;;;;5065270;28;20397;-87
2022/08/09 11:46:08;;;;;;;69.33;3.57;;;28.60;1.00;;;;;;5082625;28;20418;-86
2022/08/09 11:48:47;;;;;;;67.17;3.60;;;28.70;1.00;;;;;;5065678;28;20418;-87
2022/08/09 11:51:12;;;;;;;67.67;3.17;;;28.60;1.00;;;;;;5064442;28;20401;-87
2022/08/09 11:53:39;;;;;;;67.10;3.50;;;28.80;1.00;;;;;;5064727;28;20407;-86
2022/08/09 11:56:14;;;;;;;66.37;3.60;;;28.90;1.00;;;;;;5082829;28;20180;-88
2022/08/09 11:58:50;;;;;;;69.70;4.27;;;28.90;1.00;;;;;;5063306;28;20451;-86
2022/08/09 12:01:18;;;;;;;68.10;4.30;;;29.10;1.00;;;;;;5064882;28;20406;-87
2022/08/09 12:03:45;;;;;;;67.20;3.90;;;29.10;1.00;;;;;;5061482;28;20415;-87
2022/08/09 12:06:11;;;;;;;68.70;3.43;;;29.00;1.00;;;;;;5060284;28;20426;-87
2022/08/09 12:08:43;;;;;;;68.60;3.93;;;29.10;1.00;;;;;;5080366;28;20454;-86
2022/08/09 12:11:12;;;;;;;67.67;4.37;;;29.10;1.00;;;;;;5080192;28;20258;-87
2022/08/09 12:13:41;;;;;;;70.43;4.30;;;29.20;1.00;;;;;;5064036;28;20544;-86
2022/08/09 12:16:12;;;;;;;67.77;3.87;;;29.40;1.00;;;;;;5062497;28;20434;-86
2022/08/09 12:18:49;;;;;;;66.93;3.70;;;29.60;1.00;;;;;;5080285;28;20433;-87
2022/08/09 12:21:36;;;;;;;68.23;4.10;;;29.70;1.00;;;;;;5062687;28;20452;-86
2022/08/09 12:24:07;;;;;;;69.20;3.47;;;29.80;1.00;;;;;;5080773;28;20454;-87
2022/08/09 12:26:46;;;;;;;66.67;3.80;;;29.90;1.00;;;;;;5079393;28;20534;-87
2022/08/09 12:29:20;;;;;;;69.70;4.00;;;29.80;1.00;;;;;;5062536;28;20434;-87
2022/08/09 12:31:48;;;;;;;69.20;4.47;;;29.50;1.00;;;;;;5083977;28;20401;-87
2022/08/09 12:34:31;;;;;;;69.10;3.67;;;29.70;1.00;;;;;;5064886;28;20418;-86
2022/08/09 12:36:59;;;;;;;70.43;3.77;;;30.00;1.00;;;;;;5082105;28;20555;-86
2022/08/09 12:39:24;;;;;;;67.77;3.40;;;30.10;1.00;;;;;;5064315;28;20495;-86
2022/08/09 12:41:50;;;;;;;67.67;3.47;;;30.10;1.00;;;;;;5080792;28;20425;-87
2022/08/09 12:44:17;;;;;;;68.30;3.23;;;30.30;1.00;;;;;;5063027;28;20164;-87
2022/08/09 12:46:46;;;;;;;69.20;3.40;;;30.20;1.00;;;;;;5062958;28;20203;-87
2022/08/09 12:49:13;;;;;;;69.50;3.60;;;30.10;1.00;;;;;;5082408;28;20430;-87
2022/08/09 12:51:39;;;;;;;72.30;4.47;;;30.20;1.00;;;;;;5080857;28;20426;-87
2022/08/09 12:54:07;;;;;;;67.80;3.23;;;30.10;1.00;;;;;;5063955;28;20417;-87
2022/08/09 12:56:45;;;;;;;67.57;3.13;;;30.20;1.00;;;;;;5065789;28;20196;-86
2022/08/09 12:59:19;;;;;;;71.30;3.90;;;30.30;1.00;;;;;;5080973;28;20441;-87